Time;durP1;ratioP1;P1;durP2;ratioP2;P2;SDS_P1;SDS_P2;PMS_P1;PMS_P2;Temp;Humidity;BMP_temperature;BMP_pressure;BME280_temperature;BME280_humidity;BME280_pressure;Samples;Min_cycle;Max_cycle;Signal;HPM_P1;HPM_P2
2022/09/16 00:00:45;;;;;;;5.20;4.70;;;;;;;;;;5088780;28;20204;-70
2022/09/16 00:03:11;;;;;;;4.60;4.20;;;;;;;;;;5088291;28;20212;-70
2022/09/16 00:05:41;;;;;;;5.90;4.68;;;;;;;;;;5088253;28;20251;-70
2022/09/16 00:08:07;;;;;;;3.97;3.78;;;;;;;;;;5088380;28;20224;-70
2022/09/16 00:10:34;;;;;;;5.85;4.22;;;;;;;;;;5088338;28;20322;-70
2022/09/16 00:13:01;;;;;;;5.07;4.30;;;;;;;;;;5088318;28;20203;-69
2022/09/16 00:15:27;;;;;;;5.07;4.53;;;;;;;;;;5088586;28;20203;-70
2022/09/16 00:17:54;;;;;;;5.78;4.32;;;;;;;;;;5088497;28;20197;-70
2022/09/16 00:20:20;;;;;;;6.28;4.28;;;;;;;;;;5088435;28;20226;-70
2022/09/16 00:22:46;;;;;;;5.20;4.30;;;;;;;;;;5088114;28;20242;-70
2022/09/16 00:25:12;;;;;;;4.57;3.90;;;;;;;;;;5088500;28;20200;-70
2022/09/16 00:27:40;;;;;;;8.02;4.28;;;;;;;;;;5088215;28;20216;-69
2022/09/16 00:30:07;;;;;;;6.07;4.00;;;;;;;;;;5088435;28;20196;-70
2022/09/16 00:32:33;;;;;;;5.85;4.43;;;;;;;;;;5088131;28;20203;-70
2022/09/16 00:34:59;;;;;;;5.45;5.03;;;;;;;;;;5088259;28;20334;-70
2022/09/16 00:37:26;;;;;;;5.00;4.60;;;;;;;;;;5088176;28;20238;-69
2022/09/16 00:39:52;;;;;;;4.68;4.15;;;;;;;;;;5088159;28;20208;-70
2022/09/16 00:42:18;;;;;;;4.18;3.85;;;;;;;;;;5088162;28;20249;-69
2022/09/16 00:44:54;;;;;;;4.55;4.25;;;;;;;;;;5088301;28;20203;-70
2022/09/16 00:47:22;;;;;;;7.50;4.28;;;;;;;;;;5088160;28;20261;-70
2022/09/16 00:49:49;;;;;;;4.75;4.28;;;;;;;;;;5088588;28;20488;-70
2022/09/16 00:52:16;;;;;;;5.07;4.25;;;;;;;;;;5088025;28;20200;-70
2022/09/16 00:54:43;;;;;;;5.00;4.60;;;;;;;;;;5083830;28;20200;-70
2022/09/16 00:57:09;;;;;;;4.18;3.92;;;;;;;;;;5085282;28;20197;-70
2022/09/16 00:59:37;;;;;;;4.72;4.30;;;;;;;;;;5084914;28;20224;-70
2022/09/16 01:02:06;;;;;;;6.70;4.80;;;;;;;;;;5084884;28;20201;-70
2022/09/16 01:04:35;;;;;;;5.15;4.75;;;;;;;;;;5084573;28;20196;-70
2022/09/16 01:07:01;;;;;;;5.38;4.88;;;;;;;;;;5084719;28;20227;-70
2022/09/16 01:09:28;;;;;;;6.38;4.50;;;;;;;;;;5084663;28;20196;-70
2022/09/16 01:11:54;;;;;;;5.05;4.40;;;;;;;;;;5084651;28;20223;-70
2022/09/16 01:17:10;;;;;;;5.10;4.03;;;;;;;;;;5084570;28;20518;-70
2022/09/16 01:19:55;;;;;;;5.25;4.18;;;;;;;;;;5084645;28;20504;-69
2022/09/16 01:22:30;;;;;;;4.65;4.32;;;;;;;;;;5084376;28;20196;-70
2022/09/16 01:25:00;;;;;;;4.45;4.07;;;;;;;;;;5083803;28;20242;-70
2022/09/16 01:27:38;;;;;;;5.65;4.40;;;;;;;;;;5084202;28;20535;-70
2022/09/16 01:30:19;;;;;;;8.57;4.45;;;;;;;;;;5084304;28;20428;-70
2022/09/16 01:32:53;;;;;;;5.90;3.97;;;;;;;;;;5070803;28;20242;-69
2022/09/16 01:35:23;;;;;;;6.88;4.55;;;;;;;;;;5084121;28;20235;-70
2022/09/16 01:37:52;;;;;;;5.70;5.30;;;;;;;;;;5084327;28;20247;-69
2022/09/16 01:40:22;;;;;;;4.68;4.38;;;;;;;;;;5084111;28;20400;-70
2022/09/16 01:42:51;;;;;;;5.20;4.78;;;;;;;;;;5083895;28;20196;-70
2022/09/16 01:45:21;;;;;;;5.18;4.78;;;;;;;;;;5083970;28;20373;-70
2022/09/16 01:47:56;;;;;;;5.22;4.53;;;;;;;;;;5083925;28;20297;-70
2022/09/16 01:50:25;;;;;;;4.93;4.45;;;;;;;;;;5083940;28;20389;-70
2022/09/16 01:52:58;;;;;;;4.78;4.32;;;;;;;;;;5083731;28;20508;-70
2022/09/16 01:55:28;;;;;;;4.80;4.35;;;;;;;;;;5083949;28;20423;-70
2022/09/16 01:57:58;;;;;;;5.13;4.47;;;;;;;;;;5083661;28;20200;-70
2022/09/16 02:00:24;;;;;;;4.57;4.28;;;;;;;;;;5084149;28;20439;-70
2022/09/16 02:02:55;;;;;;;4.40;4.10;;;;;;;;;;5083682;28;20567;-70
2022/09/16 02:05:24;;;;;;;8.23;4.28;;;;;;;;;;5083264;28;20239;-70
2022/09/16 02:07:57;;;;;;;4.80;4.13;;;;;;;;;;5083554;28;20225;-70
2022/09/16 02:10:26;;;;;;;5.70;4.70;;;;;;;;;;5083541;28;20212;-70
2022/09/16 02:12:53;;;;;;;7.53;4.95;;;;;;;;;;5083078;28;20240;-70
2022/09/16 02:15:22;;;;;;;5.10;4.60;;;;;;;;;;5083608;28;20250;-70
2022/09/16 02:17:52;;;;;;;5.00;4.60;;;;;;;;;;5083405;28;20420;-70
2022/09/16 02:20:23;;;;;;;6.93;4.53;;;;;;;;;;5083081;28;20200;-70
2022/09/16 02:22:52;;;;;;;4.70;4.45;;;;;;;;;;5083010;28;20204;-70
2022/09/16 02:25:18;;;;;;;4.70;4.40;;;;;;;;;;5083297;28;20294;-70
2022/09/16 02:27:46;;;;;;;7.18;4.93;;;;;;;;;;5083298;28;20220;-70
2022/09/16 02:30:15;;;;;;;5.68;4.70;;;;;;;;;;5083222;28;20197;-70
2022/09/16 02:32:43;;;;;;;5.38;4.90;;;;;;;;;;5082898;28;20497;-70
2022/09/16 02:35:12;;;;;;;4.95;4.55;;;;;;;;;;5082912;28;20200;-70
2022/09/16 02:37:42;;;;;;;4.65;4.35;;;;;;;;;;5083499;28;20196;-70
2022/09/16 02:40:10;;;;;;;4.93;4.63;;;;;;;;;;5083143;28;20200;-70
2022/09/16 02:42:36;;;;;;;5.50;4.10;;;;;;;;;;5082966;28;20204;-70
2022/09/16 02:45:04;;;;;;;4.75;4.10;;;;;;;;;;5082812;28;20234;-70
2022/09/16 02:47:32;;;;;;;5.03;4.35;;;;;;;;;;5082732;28;20315;-69
2022/09/16 02:50:01;;;;;;;4.70;4.32;;;;;;;;;;5082759;28;20209;-70
2022/09/16 02:52:32;;;;;;;5.97;4.22;;;;;;;;;;5082616;28;20196;-70
2022/09/16 02:55:03;;;;;;;5.53;4.22;;;;;;;;;;5083017;28;20200;-70
2022/09/16 02:57:29;;;;;;;7.00;4.57;;;;;;;;;;5082751;28;20546;-70
2022/09/16 02:59:56;;;;;;;5.28;4.20;;;;;;;;;;5082586;28;20201;-69
2022/09/16 03:02:22;;;;;;;9.45;4.20;;;;;;;;;;5082249;28;20251;-69
2022/09/16 03:04:48;;;;;;;6.63;4.28;;;;;;;;;;5082630;28;20220;-69
2022/09/16 03:07:15;;;;;;;5.90;4.45;;;;;;;;;;5082544;28;20197;-70
2022/09/16 03:09:43;;;;;;;7.25;4.72;;;;;;;;;;5082516;28;20508;-70
2022/09/16 03:12:30;;;;;;;10.68;5.03;;;;;;;;;;5082323;28;20422;-70
2022/09/16 03:15:11;;;;;;;4.95;4.55;;;;;;;;;;5077353;28;20196;-70
2022/09/16 03:17:47;;;;;;;7.07;4.80;;;;;;;;;;5082338;28;20322;-70
2022/09/16 03:20:17;;;;;;;5.65;4.55;;;;;;;;;;5082436;28;20195;-69
2022/09/16 03:22:48;;;;;;;4.55;4.25;;;;;;;;;;5082134;28;20197;-69
2022/09/16 03:25:21;;;;;;;4.85;4.55;;;;;;;;;;5082847;28;20258;-69
2022/09/16 03:27:50;;;;;;;7.43;5.63;;;;;;;;;;5082433;28;20228;-70
2022/09/16 03:30:18;;;;;;;9.90;5.28;;;;;;;;;;5082161;28;20204;-70
2022/09/16 03:32:46;;;;;;;8.30;5.57;;;;;;;;;;5082083;28;20254;-70
2022/09/16 03:35:16;;;;;;;5.70;5.20;;;;;;;;;;5082165;28;20197;-70
2022/09/16 03:37:44;;;;;;;5.38;4.95;;;;;;;;;;5082193;28;20238;-69
2022/09/16 03:40:12;;;;;;;5.38;4.93;;;;;;;;;;5082157;28;20233;-69
2022/09/16 03:42:39;;;;;;;5.00;4.50;;;;;;;;;;5082098;28;20267;-70
2022/09/16 03:45:05;;;;;;;5.47;5.05;;;;;;;;;;5082214;28;20200;-70
2022/09/16 03:47:33;;;;;;;13.63;5.22;;;;;;;;;;5082016;28;20508;-70
2022/09/16 03:49:59;;;;;;;5.70;4.82;;;;;;;;;;5081986;28;20200;-69
2022/09/16 03:52:25;;;;;;;7.88;5.20;;;;;;;;;;5081738;28;20263;-70
2022/09/16 03:54:52;;;;;;;9.45;5.20;;;;;;;;;;5082197;28;20196;-69
2022/09/16 03:57:18;;;;;;;6.35;5.32;;;;;;;;;;5082191;28;20437;-70
2022/09/16 03:59:44;;;;;;;5.05;4.57;;;;;;;;;;5082350;28;20196;-70
2022/09/16 04:02:10;;;;;;;5.78;5.07;;;;;;;;;;5081936;28;20456;-70
2022/09/16 04:04:38;;;;;;;9.15;4.75;;;;;;;;;;5081780;28;20200;-69
2022/09/16 04:07:04;;;;;;;5.38;4.88;;;;;;;;;;5081890;28;20209;-70
2022/09/16 04:09:31;;;;;;;4.95;4.65;;;;;;;;;;5081871;28;20258;-70
2022/09/16 04:11:57;;;;;;;5.18;4.68;;;;;;;;;;5082055;28;20205;-69
2022/09/16 04:14:23;;;;;;;7.68;5.25;;;;;;;;;;5081489;28;20208;-70
2022/09/16 04:16:49;;;;;;;9.60;4.63;;;;;;;;;;5081708;28;20197;-69
2022/09/16 04:19:16;;;;;;;5.43;5.03;;;;;;;;;;5081607;28;20238;-70
2022/09/16 04:21:43;;;;;;;5.72;4.90;;;;;;;;;;5081646;28;20242;-70
2022/09/16 04:24:09;;;;;;;8.43;4.72;;;;;;;;;;5081350;28;20197;-70
2022/09/16 04:26:36;;;;;;;7.72;5.05;;;;;;;;;;5081567;28;20208;-70
2022/09/16 04:29:02;;;;;;;6.05;5.32;;;;;;;;;;5083102;28;20262;-70
2022/09/16 04:31:28;;;;;;;5.10;4.57;;;;;;;;;;5085484;28;20503;-70
2022/09/16 04:33:55;;;;;;;7.55;4.78;;;;;;;;;;5085020;28;20203;-70
2022/09/16 04:36:21;;;;;;;7.43;5.38;;;;;;;;;;5085502;28;20200;-70
2022/09/16 04:38:49;;;;;;;7.25;5.13;;;;;;;;;;5085379;28;20238;-70
2022/09/16 04:41:16;;;;;;;5.35;4.90;;;;;;;;;;5085452;28;20196;-70
2022/09/16 04:43:42;;;;;;;5.22;4.80;;;;;;;;;;5084962;28;20200;-70
2022/09/16 04:46:09;;;;;;;7.50;5.13;;;;;;;;;;5085203;28;20249;-70
2022/09/16 04:48:36;;;;;;;5.95;5.07;;;;;;;;;;5084903;28;20291;-70
2022/09/16 04:51:03;;;;;;;5.55;5.15;;;;;;;;;;5085324;28;20234;-70
2022/09/16 04:53:29;;;;;;;9.70;5.68;;;;;;;;;;5084859;28;20421;-70
2022/09/16 04:56:03;;;;;;;7.00;5.05;;;;;;;;;;5085149;28;20234;-70
2022/09/16 04:58:30;;;;;;;6.97;5.40;;;;;;;;;;5085015;28;20231;-70
2022/09/16 05:00:56;;;;;;;12.95;6.10;;;;;;;;;;5084870;28;20422;-70
2022/09/16 05:03:22;;;;;;;7.38;5.70;;;;;;;;;;5084756;28;20205;-70
2022/09/16 05:05:48;;;;;;;7.18;5.40;;;;;;;;;;5084869;28;20539;-70
2022/09/16 05:08:15;;;;;;;5.95;5.35;;;;;;;;;;5084745;28;20578;-70
2022/09/16 05:10:41;;;;;;;9.68;5.57;;;;;;;;;;5084725;28;20201;-70
2022/09/16 05:13:09;;;;;;;6.22;5.72;;;;;;;;;;5084599;28;20196;-71
2022/09/16 05:15:35;;;;;;;7.35;5.85;;;;;;;;;;5087504;28;20203;-70
2022/09/16 05:18:01;;;;;;;8.93;5.72;;;;;;;;;;5084848;28;20211;-70
2022/09/16 05:20:28;;;;;;;7.35;5.70;;;;;;;;;;5084304;28;20422;-70
2022/09/16 05:22:54;;;;;;;6.72;5.82;;;;;;;;;;5083829;28;20196;-70
2022/09/16 05:25:20;;;;;;;7.28;5.80;;;;;;;;;;5083952;28;20272;-70
2022/09/16 05:27:47;;;;;;;8.65;5.95;;;;;;;;;;5083964;28;20196;-70
2022/09/16 05:30:16;;;;;;;9.40;6.43;;;;;;;;;;5083967;28;20267;-70
2022/09/16 05:32:42;;;;;;;9.60;6.40;;;;;;;;;;5083921;28;20203;-70
2022/09/16 05:35:09;;;;;;;11.55;5.80;;;;;;;;;;5084085;28;20242;-70
2022/09/16 05:37:35;;;;;;;7.57;5.80;;;;;;;;;;5083908;28;20394;-69
2022/09/16 05:40:01;;;;;;;7.47;4.97;;;;;;;;;;5083416;28;20201;-70
2022/09/16 05:42:28;;;;;;;6.93;4.80;;;;;;;;;;5083524;28;20197;-70
2022/09/16 05:44:54;;;;;;;9.20;4.70;;;;;;;;;;5083676;28;20326;-70
2022/09/16 05:47:22;;;;;;;4.85;4.43;;;;;;;;;;5083744;28;20439;-69
2022/09/16 05:49:48;;;;;;;4.97;3.85;;;;;;;;;;5083698;28;20216;-70
2022/09/16 05:52:14;;;;;;;5.53;4.13;;;;;;;;;;5083346;28;20196;-70
2022/09/16 05:54:41;;;;;;;4.90;3.53;;;;;;;;;;5083531;28;20509;-70
2022/09/16 05:57:07;;;;;;;5.07;3.72;;;;;;;;;;5083319;28;20204;-70
2022/09/16 05:59:34;;;;;;;4.20;3.80;;;;;;;;;;5083138;28;20479;-70
2022/09/16 06:02:00;;;;;;;5.20;4.00;;;;;;;;;;5083386;28;20197;-70
2022/09/16 06:04:28;;;;;;;4.72;3.72;;;;;;;;;;5083049;28;20200;-70
2022/09/16 06:06:54;;;;;;;8.32;4.15;;;;;;;;;;5083158;28;20200;-62
2022/09/16 06:09:21;;;;;;;8.02;4.78;;;;;;;;;;5082711;28;20220;-61
2022/09/16 06:11:48;;;;;;;7.72;3.97;;;;;;;;;;5060434;28;20216;-62
2022/09/16 06:14:15;;;;;;;5.20;3.90;;;;;;;;;;5059136;28;20277;-62
2022/09/16 06:16:42;;;;;;;5.35;3.70;;;;;;;;;;5076871;28;20230;-60
2022/09/16 06:19:11;;;;;;;4.32;3.40;;;;;;;;;;5076983;28;20254;-61
2022/09/16 06:21:39;;;;;;;7.07;3.67;;;;;;;;;;5075921;28;20244;-61
2022/09/16 06:24:07;;;;;;;4.10;3.13;;;;;;;;;;5073065;28;20415;-62
2022/09/16 06:26:34;;;;;;;5.05;3.13;;;;;;;;;;5075193;28;20220;-61
2022/09/16 06:29:00;;;;;;;4.13;3.13;;;;;;;;;;5073511;28;20613;-60
2022/09/16 06:31:27;;;;;;;4.32;3.63;;;;;;;;;;5075226;28;20220;-61
2022/09/16 06:33:54;;;;;;;4.80;3.30;;;;;;;;;;5075500;28;20223;-61
2022/09/16 06:36:21;;;;;;;6.60;3.47;;;;;;;;;;5075642;28;20208;-61
2022/09/16 06:38:50;;;;;;;3.10;2.90;;;;;;;;;;5075049;28;20211;-62
2022/09/16 06:41:17;;;;;;;3.47;3.15;;;;;;;;;;5074360;28;20261;-61
2022/09/16 06:43:43;;;;;;;4.22;3.03;;;;;;;;;;5074643;28;20216;-60
2022/09/16 06:46:12;;;;;;;3.35;3.00;;;;;;;;;;5074998;28;20415;-60
2022/09/16 06:48:39;;;;;;;5.95;3.00;;;;;;;;;;5074904;28;20429;-62
2022/09/16 06:51:06;;;;;;;5.20;3.35;;;;;;;;;;5073643;28;20579;-61
2022/09/16 06:53:33;;;;;;;3.47;3.17;;;;;;;;;;5074526;28;20216;-61
2022/09/16 06:56:01;;;;;;;5.47;3.08;;;;;;;;;;5074781;28;20520;-61
2022/09/16 06:58:29;;;;;;;6.43;3.25;;;;;;;;;;5074817;28;20220;-61
2022/09/16 07:00:55;;;;;;;3.65;3.45;;;;;;;;;;5074726;28;20219;-61
2022/09/16 07:03:22;;;;;;;5.82;3.28;;;;;;;;;;5075245;28;20326;-61
2022/09/16 07:05:55;;;;;;;3.38;3.10;;;;;;;;;;5072777;28;20548;-61
2022/09/16 07:08:22;;;;;;;5.55;3.75;;;;;;;;;;5075078;28;20212;-62
2022/09/16 07:10:54;;;;;;;5.22;3.28;;;;;;;;;;5072954;28;20535;-61
2022/09/16 07:13:22;;;;;;;4.70;3.33;;;;;;;;;;5074952;28;20211;-61
2022/09/16 07:15:48;;;;;;;4.10;3.65;;;;;;;;;;5074013;28;20526;-61
2022/09/16 07:18:14;;;;;;;4.13;3.25;;;;;;;;;;5074611;28;20593;-62
2022/09/16 07:20:41;;;;;;;7.00;3.35;;;;;;;;;;5072815;28;20250;-63
2022/09/16 07:23:07;;;;;;;5.70;3.10;;;;;;;;;;5055614;28;20230;-62
2022/09/16 07:25:34;;;;;;;3.38;3.08;;;;;;;;;;5073743;28;20266;-62
2022/09/16 07:28:00;;;;;;;9.82;3.00;;;;;;;;;;5074689;28;20289;-62
2022/09/16 07:30:28;;;;;;;3.38;3.10;;;;;;;;;;5073835;28;20548;-62
2022/09/16 07:32:55;;;;;;;3.55;2.85;;;;;;;;;;5074290;28;20406;-61
2022/09/16 07:35:21;;;;;;;3.28;2.95;;;;;;;;;;5074636;28;20478;-62
2022/09/16 07:37:47;;;;;;;6.65;2.97;;;;;;;;;;5075412;28;20322;-62
2022/09/16 07:40:14;;;;;;;3.70;2.70;;;;;;;;;;5074698;28;20208;-61
2022/09/16 07:42:41;;;;;;;5.15;3.35;;;;;;;;;;5074625;28;20551;-61
2022/09/16 07:45:07;;;;;;;4.20;3.67;;;;;;;;;;5074350;28;20439;-62
2022/09/16 07:47:35;;;;;;;5.63;4.70;;;;;;;;;;5074137;28;20212;-62
2022/09/16 07:50:01;;;;;;;4.38;3.65;;;;;;;;;;5073870;28;20613;-61
2022/09/16 07:52:29;;;;;;;4.45;3.10;;;;;;;;;;5074214;28;20212;-62
2022/09/16 07:54:55;;;;;;;5.03;2.70;;;;;;;;;;5074544;28;20570;-62
2022/09/16 07:57:21;;;;;;;4.35;2.70;;;;;;;;;;5074529;28;20230;-62
2022/09/16 07:59:48;;;;;;;5.43;2.88;;;;;;;;;;5074798;28;20212;-62
2022/09/16 08:02:15;;;;;;;3.33;2.65;;;;;;;;;;5074292;28;20218;-62
2022/09/16 08:04:42;;;;;;;3.10;2.80;;;;;;;;;;5078648;28;20213;-63
2022/09/16 08:07:09;;;;;;;6.47;4.00;;;;;;;;;;5078770;28;20205;-63
2022/09/16 08:09:36;;;;;;;4.68;3.13;;;;;;;;;;5076346;28;20559;-65
2022/09/16 08:12:04;;;;;;;6.60;2.95;;;;;;;;;;5077571;28;20250;-64
2022/09/16 08:14:31;;;;;;;3.67;2.72;;;;;;;;;;5077566;28;20200;-62
2022/09/16 08:16:58;;;;;;;3.72;3.42;;;;;;;;;;5077155;28;20465;-62
2022/09/16 08:19:24;;;;;;;3.28;2.65;;;;;;;;;;5077510;28;20208;-62
2022/09/16 08:21:52;;;;;;;4.03;3.08;;;;;;;;;;5077880;28;20224;-62
2022/09/16 08:24:18;;;;;;;2.75;2.60;;;;;;;;;;5073592;28;20453;-62
2022/09/16 08:26:44;;;;;;;3.97;2.35;;;;;;;;;;5077240;28;20261;-62
2022/09/16 08:29:11;;;;;;;2.90;2.63;;;;;;;;;;5076638;28;20228;-63
2022/09/16 08:31:37;;;;;;;4.85;3.15;;;;;;;;;;5069458;28;20213;-62
2022/09/16 08:34:04;;;;;;;3.45;3.08;;;;;;;;;;5075881;28;20212;-62
2022/09/16 08:36:32;;;;;;;4.63;3.17;;;;;;;;;;5077152;28;20397;-62
2022/09/16 08:38:59;;;;;;;5.78;2.53;;;;;;;;;;5076830;28;20196;-62
2022/09/16 08:41:40;;;;;;;3.40;2.92;;;;;;;;;;5077242;28;20262;-62
2022/09/16 08:44:13;;;;;;;3.78;3.28;;;;;;;;;;5074174;28;20227;-63
2022/09/16 08:46:44;;;;;;;3.40;2.67;;;;;;;;;;5076589;28;20521;-62
2022/09/16 08:49:16;;;;;;;4.20;3.05;;;;;;;;;;5077254;28;20231;-63
2022/09/16 08:51:43;;;;;;;4.38;2.17;;;;;;;;;;5076460;28;20234;-62
2022/09/16 08:54:12;;;;;;;4.53;2.67;;;;;;;;;;5076836;28;20212;-62
2022/09/16 08:56:39;;;;;;;5.10;3.08;;;;;;;;;;5077171;28;20213;-63
2022/09/16 08:59:09;;;;;;;3.55;2.90;;;;;;;;;;5076680;28;20213;-63
2022/09/16 09:01:41;;;;;;;4.10;3.30;;;;;;;;;;5076502;28;20417;-63
2022/09/16 09:04:07;;;;;;;5.97;3.67;;;;;;;;;;5076810;28;20301;-63
2022/09/16 09:06:48;;;;;;;3.40;3.08;;;;;;;;;;5076388;28;20540;-63
2022/09/16 09:09:22;;;;;;;4.15;2.85;;;;;;;;;;5076460;28;20232;-62
2022/09/16 09:11:52;;;;;;;8.77;3.78;;;;;;;;;;5076696;28;20258;-63
2022/09/16 09:14:23;;;;;;;4.55;3.30;;;;;;;;;;5075975;28;20254;-63
2022/09/16 09:16:53;;;;;;;3.20;2.75;;;;;;;;;;5073193;28;20258;-63
2022/09/16 09:19:28;;;;;;;4.95;2.90;;;;;;;;;;5076842;28;20250;-64
2022/09/16 09:21:59;;;;;;;5.47;3.63;;;;;;;;;;5073653;28;20212;-62
2022/09/16 09:24:31;;;;;;;3.67;3.35;;;;;;;;;;5076793;28;20572;-63
2022/09/16 09:26:59;;;;;;;5.63;4.35;;;;;;;;;;5076227;28;20262;-64
2022/09/16 09:29:37;;;;;;;7.05;4.40;;;;;;;;;;5075990;28;20239;-62
2022/09/16 09:32:10;;;;;;;6.50;3.70;;;;;;;;;;5075461;28;20208;-62
2022/09/16 09:34:42;;;;;;;4.00;3.63;;;;;;;;;;5076378;28;20253;-63
2022/09/16 09:37:18;;;;;;;7.22;4.60;;;;;;;;;;5076487;28;20216;-61
2022/09/16 09:39:51;;;;;;;6.57;4.53;;;;;;;;;;5075625;28;20231;-61
2022/09/16 09:42:20;;;;;;;4.75;4.28;;;;;;;;;;5075436;28;20245;-62
2022/09/16 09:44:50;;;;;;;9.20;4.72;;;;;;;;;;5076795;28;20212;-63
2022/09/16 09:47:19;;;;;;;4.80;4.25;;;;;;;;;;5076548;28;20208;-63
2022/09/16 09:49:46;;;;;;;4.75;4.35;;;;;;;;;;5075341;28;20270;-63
2022/09/16 09:52:15;;;;;;;5.35;3.72;;;;;;;;;;5074926;28;20212;-62
2022/09/16 09:54:46;;;;;;;5.03;3.85;;;;;;;;;;5075247;28;20246;-62
2022/09/16 09:57:16;;;;;;;5.20;4.03;;;;;;;;;;5074605;28;20247;-61
2022/09/16 09:59:44;;;;;;;7.13;4.07;;;;;;;;;;5075318;28;20220;-62
2022/09/16 10:02:15;;;;;;;6.45;3.92;;;;;;;;;;5074743;28;20216;-61
2022/09/16 10:04:42;;;;;;;8.82;4.40;;;;;;;;;;5075493;28;20205;-62
2022/09/16 10:07:09;;;;;;;10.20;4.25;;;;;;;;;;5075617;28;20577;-63
2022/09/16 10:09:35;;;;;;;4.68;3.97;;;;;;;;;;5074997;28;20240;-62
2022/09/16 10:12:03;;;;;;;7.22;4.28;;;;;;;;;;5077158;28;20209;-63
2022/09/16 10:14:32;;;;;;;8.98;4.25;;;;;;;;;;5076942;28;20240;-62
2022/09/16 10:17:01;;;;;;;4.10;3.85;;;;;;;;;;5065165;28;20404;-62
2022/09/16 10:19:28;;;;;;;4.00;3.70;;;;;;;;;;5072602;28;20654;-62
2022/09/16 10:21:55;;;;;;;5.60;4.40;;;;;;;;;;5057251;28;20212;-62
2022/09/16 10:24:27;;;;;;;4.60;4.15;;;;;;;;;;5071090;28;20450;-61
2022/09/16 10:26:53;;;;;;;5.38;4.53;;;;;;;;;;5075413;28;20216;-61
2022/09/16 10:29:20;;;;;;;6.35;4.57;;;;;;;;;;5075449;28;20216;-62
2022/09/16 10:31:48;;;;;;;5.85;4.70;;;;;;;;;;5073851;28;20208;-62
2022/09/16 10:34:17;;;;;;;5.88;4.15;;;;;;;;;;5074980;28;20224;-62
2022/09/16 10:36:45;;;;;;;7.88;4.35;;;;;;;;;;5075691;28;20258;-63
2022/09/16 10:39:25;;;;;;;3.53;3.00;;;;;;;;;;5075513;28;20216;-62
2022/09/16 10:41:52;;;;;;;2.95;2.70;;;;;;;;;;5075116;28;20219;-62
2022/09/16 10:44:22;;;;;;;3.38;2.88;;;;;;;;;;5075157;28;20331;-61
2022/09/16 10:46:55;;;;;;;4.28;2.83;;;;;;;;;;5065621;28;20422;-62
2022/09/16 10:49:25;;;;;;;4.00;2.10;;;;;;;;;;5063263;28;20209;-62
2022/09/16 10:51:51;;;;;;;5.13;1.90;;;;;;;;;;5075518;28;20208;-64
2022/09/16 10:54:23;;;;;;;3.50;2.00;;;;;;;;;;5076344;28;20215;-63
2022/09/16 10:56:50;;;;;;;2.10;1.98;;;;;;;;;;5074925;28;20238;-64
2022/09/16 10:59:17;;;;;;;3.20;1.98;;;;;;;;;;5075050;28;20438;-63
2022/09/16 11:01:47;;;;;;;3.38;2.20;;;;;;;;;;5074706;28;20214;-63
2022/09/16 11:04:34;;;;;;;3.78;2.20;;;;;;;;;;5073574;28;20539;-63
2022/09/16 11:07:07;;;;;;;3.60;2.28;;;;;;;;;;5074077;28;20215;-63
2022/09/16 11:09:38;;;;;;;5.18;2.42;;;;;;;;;;5073760;28;20414;-63
2022/09/16 11:12:13;;;;;;;4.25;2.40;;;;;;;;;;5074341;28;20215;-61
2022/09/16 11:14:46;;;;;;;5.30;2.22;;;;;;;;;;5074724;28;20573;-63
2022/09/16 11:17:22;;;;;;;3.05;2.58;;;;;;;;;;5074748;28;20212;-62
2022/09/16 11:19:55;;;;;;;3.55;3.00;;;;;;;;;;5073526;28;20246;-63
2022/09/16 11:22:27;;;;;;;4.40;2.50;;;;;;;;;;5074046;28;20253;-62
2022/09/16 11:25:03;;;;;;;2.97;2.78;;;;;;;;;;5073987;28;20234;-63
2022/09/16 11:27:36;;;;;;;2.67;2.30;;;;;;;;;;5074215;28;20511;-63
2022/09/16 11:30:04;;;;;;;2.67;2.15;;;;;;;;;;5073870;28;20240;-62
2022/09/16 11:32:35;;;;;;;2.38;2.03;;;;;;;;;;5074098;28;20220;-63
2022/09/16 11:35:16;;;;;;;3.30;2.25;;;;;;;;;;5074133;28;20215;-63
2022/09/16 11:37:47;;;;;;;4.68;2.05;;;;;;;;;;5073718;28;20280;-62
2022/09/16 11:40:20;;;;;;;7.95;2.10;;;;;;;;;;5073385;28;20445;-62
2022/09/16 11:42:48;;;;;;;3.25;2.10;;;;;;;;;;5070987;28;20278;-63
2022/09/16 11:45:21;;;;;;;2.50;2.10;;;;;;;;;;5073494;28;20223;-63
2022/09/16 11:47:56;;;;;;;2.15;1.90;;;;;;;;;;5073672;28;20212;-63
2022/09/16 11:50:28;;;;;;;2.58;1.70;;;;;;;;;;5073631;28;20231;-63
2022/09/16 11:53:15;;;;;;;2.55;1.88;;;;;;;;;;5074686;28;20216;-61
2022/09/16 11:55:47;;;;;;;2.85;2.17;;;;;;;;;;5073787;28;20253;-62
2022/09/16 11:58:20;;;;;;;5.18;2.20;;;;;;;;;;5070295;28;20792;-61
2022/09/16 12:00:46;;;;;;;2.10;2.00;;;;;;;;;;5070548;28;20223;-61
2022/09/16 12:03:21;;;;;;;4.57;2.45;;;;;;;;;;5074290;28;20475;-61
2022/09/16 12:05:52;;;;;;;3.83;1.80;;;;;;;;;;5073743;28;20215;-62
2022/09/16 12:08:23;;;;;;;4.60;1.70;;;;;;;;;;5073847;28;20443;-60
2022/09/16 12:10:52;;;;;;;5.53;2.08;;;;;;;;;;5073734;28;20266;-60
2022/09/16 12:13:21;;;;;;;7.85;2.28;;;;;;;;;;5074149;28;20234;-59
2022/09/16 12:15:49;;;;;;;5.00;2.08;;;;;;;;;;5073588;28;20254;-59
2022/09/16 12:18:18;;;;;;;2.47;1.70;;;;;;;;;;5074457;28;20282;-61
2022/09/16 12:20:46;;;;;;;4.22;1.70;;;;;;;;;;5073139;28;20566;-61
2022/09/16 12:23:15;;;;;;;3.80;1.63;;;;;;;;;;5073790;28;20239;-59
2022/09/16 12:25:45;;;;;;;5.32;2.20;;;;;;;;;;5070548;28;20224;-60
2022/09/16 12:28:15;;;;;;;6.22;1.42;;;;;;;;;;5070638;28;20240;-59
2022/09/16 12:30:44;;;;;;;4.78;1.40;;;;;;;;;;5073975;28;20236;-61
2022/09/16 12:33:14;;;;;;;2.58;1.30;;;;;;;;;;5070215;28;20235;-60
2022/09/16 12:35:42;;;;;;;2.47;1.30;;;;;;;;;;5074622;28;20218;-61
2022/09/16 12:38:12;;;;;;;5.25;1.35;;;;;;;;;;5073744;28;20223;-61
2022/09/16 12:40:44;;;;;;;2.55;1.50;;;;;;;;;;5072985;28;20204;-63
2022/09/16 12:43:21;;;;;;;3.47;1.20;;;;;;;;;;5073491;28;20212;-62
2022/09/16 12:46:06;;;;;;;6.63;1.80;;;;;;;;;;5070492;28;20458;-62
2022/09/16 12:48:46;;;;;;;5.13;1.58;;;;;;;;;;5073542;28;20434;-62
2022/09/16 12:51:20;;;;;;;2.90;1.40;;;;;;;;;;5076472;28;20560;-62
2022/09/16 12:53:59;;;;;;;2.40;1.10;;;;;;;;;;5072761;28;20253;-61
2022/09/16 12:56:30;;;;;;;3.80;1.40;;;;;;;;;;5075088;28;20215;-61
2022/09/16 12:59:26;;;;;;;3.40;1.17;;;;;;;;;;5076804;28;20212;-61
2022/09/16 13:01:56;;;;;;;5.43;1.33;;;;;;;;;;5013915;28;20211;-61
2022/09/16 13:04:24;;;;;;;5.82;1.40;;;;;;;;;;5061543;28;20216;-61
2022/09/16 13:06:52;;;;;;;4.00;1.45;;;;;;;;;;5076796;28;20389;-62
2022/09/16 13:09:22;;;;;;;1.42;1.35;;;;;;;;;;5076724;28;20212;-62
2022/09/16 13:11:56;;;;;;;1.67;1.23;;;;;;;;;;5076144;28;20232;-61
2022/09/16 13:14:23;;;;;;;6.13;1.70;;;;;;;;;;5076387;28;20212;-61
2022/09/16 13:16:53;;;;;;;2.08;1.30;;;;;;;;;;5076498;28;20583;-62
2022/09/16 13:19:27;;;;;;;5.20;1.33;;;;;;;;;;5076777;28;20212;-62
2022/09/16 13:21:56;;;;;;;2.65;1.20;;;;;;;;;;5074966;28;20204;-62
2022/09/16 13:24:25;;;;;;;2.47;1.10;;;;;;;;;;5076388;28;20216;-63
2022/09/16 13:26:52;;;;;;;1.10;1.00;;;;;;;;;;5076557;28;20220;-62
2022/09/16 13:29:25;;;;;;;4.57;1.58;;;;;;;;;;5076484;28;20243;-61
2022/09/16 13:31:51;;;;;;;2.53;1.60;;;;;;;;;;5075702;28;20236;-62
2022/09/16 13:34:19;;;;;;;2.72;1.20;;;;;;;;;;5076157;28;20469;-62
2022/09/16 13:36:47;;;;;;;6.30;1.65;;;;;;;;;;5076650;28;20456;-62
2022/09/16 13:39:15;;;;;;;2.67;1.35;;;;;;;;;;5076681;28;20227;-62
2022/09/16 13:41:42;;;;;;;2.20;1.38;;;;;;;;;;5076502;28;20396;-61
2022/09/16 13:44:24;;;;;;;2.33;1.30;;;;;;;;;;5075547;28;20287;-61
2022/09/16 13:46:50;;;;;;;3.15;1.17;;;;;;;;;;5073732;28;20606;-61
2022/09/16 13:49:19;;;;;;;2.08;1.20;;;;;;;;;;5075461;28;20216;-61
2022/09/16 13:51:47;;;;;;;1.73;1.20;;;;;;;;;;5075529;28;20227;-61
2022/09/16 13:54:26;;;;;;;4.50;1.60;;;;;;;;;;5075438;28;20531;-61
2022/09/16 13:56:57;;;;;;;5.68;1.48;;;;;;;;;;5073424;28;20220;-61
2022/09/16 13:59:35;;;;;;;1.70;1.33;;;;;;;;;;5076118;28;20555;-61
2022/09/16 14:02:07;;;;;;;1.85;1.00;;;;;;;;;;5074714;28;20574;-61
2022/09/16 14:04:41;;;;;;;3.50;1.20;;;;;;;;;;5074959;28;20577;-61
2022/09/16 14:07:14;;;;;;;2.55;1.25;;;;;;;;;;5075030;28;20212;-61
2022/09/16 14:09:44;;;;;;;2.30;1.23;;;;;;;;;;5072151;28;20585;-62
2022/09/16 14:12:15;;;;;;;2.70;1.33;;;;;;;;;;5075033;28;20244;-61
2022/09/16 14:14:42;;;;;;;2.22;1.20;;;;;;;;;;5072237;28;20639;-62
2022/09/16 14:17:14;;;;;;;2.50;1.20;;;;;;;;;;5074570;28;20456;-61
2022/09/16 14:19:42;;;;;;;3.42;1.38;;;;;;;;;;5071882;28;20235;-61
2022/09/16 14:22:14;;;;;;;3.30;1.30;;;;;;;;;;5074758;28;20215;-62
2022/09/16 14:24:41;;;;;;;2.90;1.15;;;;;;;;;;5075930;28;20258;-61
2022/09/16 14:27:18;;;;;;;2.78;1.17;;;;;;;;;;5074976;28;20228;-61
2022/09/16 14:29:53;;;;;;;1.65;1.30;;;;;;;;;;5072097;28;20235;-61
2022/09/16 14:32:19;;;;;;;3.00;1.20;;;;;;;;;;5072761;28;20232;-62
2022/09/16 14:34:46;;;;;;;2.15;1.42;;;;;;;;;;5074884;28;20534;-60
2022/09/16 14:37:16;;;;;;;4.07;1.50;;;;;;;;;;5075684;28;20236;-61
2022/09/16 14:39:43;;;;;;;2.95;1.35;;;;;;;;;;5071800;28;20212;-61
2022/09/16 14:42:14;;;;;;;8.55;1.55;;;;;;;;;;5074212;28;20209;-61
2022/09/16 14:44:42;;;;;;;3.72;1.25;;;;;;;;;;5075271;28;20552;-61
2022/09/16 14:47:15;;;;;;;2.40;1.23;;;;;;;;;;5074401;28;20241;-62
2022/09/16 14:49:41;;;;;;;4.30;1.00;;;;;;;;;;5075150;28;20216;-62
2022/09/16 14:52:17;;;;;;;5.85;0.90;;;;;;;;;;5074411;28;20282;-62
2022/09/16 14:54:44;;;;;;;3.67;1.30;;;;;;;;;;5075307;28;20249;-62
2022/09/16 14:57:24;;;;;;;5.53;1.42;;;;;;;;;;5074957;28;20219;-61